Time;durP1;ratioP1;P1;durP2;ratioP2;P2;SDS_P1;SDS_P2;PMS_P1;PMS_P2;Temp;Humidity;BMP_temperature;BMP_pressure;BME280_temperature;BME280_humidity;BME280_pressure;Samples;Min_cycle;Max_cycle;Signal;HPM_P1;HPM_P2
2020/12/21 07:52:17;;;;;;;;;;;3.80;99.90;;;;;;5041556;28;19932;-78
2020/12/21 07:55:12;;;;;;;;;;;6.60;99.90;;;;;;5028959;28;19925;-79
2020/12/21 07:57:38;;;;;;;;;;;6.30;99.90;;;;;;5040240;28;20300;-79
2020/12/21 08:00:05;;;;;;;;;;;6.30;99.90;;;;;;5054748;28;19925;-79
2020/12/21 08:02:31;;;;;;;;;;;6.30;99.90;;;;;;5053846;28;19956;-79
2020/12/21 08:04:58;;;;;;;;;;;6.30;99.90;;;;;;5052984;28;19931;-79
2020/12/21 08:07:27;;;;;;;;;;;6.30;99.90;;;;;;5049855;28;19948;-79
2020/12/21 08:09:53;;;;;;;;;;;6.40;99.90;;;;;;5048588;28;19936;-78
2020/12/21 08:12:20;;;;;;;;;;;6.30;99.90;;;;;;5043379;28;19925;-78
2020/12/21 08:14:47;;;;;;;;;;;6.40;99.90;;;;;;5043214;28;19925;-78
2020/12/21 08:17:13;;;;;;;;;;;6.40;99.90;;;;;;5042179;28;19925;-78
2020/12/21 08:19:47;;;;;;;;;;;6.40;99.90;;;;;;5040545;28;19925;-78
2020/12/21 08:22:13;;;;;;;;;;;6.50;99.90;;;;;;5040144;28;20358;-78
2020/12/21 08:24:40;;;;;;;;;;;6.40;99.90;;;;;;5039019;28;19990;-77
2020/12/21 08:27:06;;;;;;;;;;;6.50;99.90;;;;;;5039270;28;19929;-78
2020/12/21 08:29:33;;;;;;;;;;;6.50;99.90;;;;;;5038947;28;20309;-77
2020/12/21 08:32:00;;;;;;;;;;;6.50;99.90;;;;;;5038514;28;19933;-78
2020/12/21 08:34:27;;;;;;;;;;;6.50;99.90;;;;;;5037886;28;20428;-77
2020/12/21 08:36:56;;;;;;;;;;;6.50;99.90;;;;;;5038362;28;19925;-78
2020/12/21 08:39:26;;;;;;;;;;;6.50;99.90;;;;;;5037786;28;19925;-78
2020/12/21 08:41:59;;;;;;;;;;;6.50;99.90;;;;;;5038305;28;19925;-77
2020/12/21 08:44:27;;;;;;;;;;;6.60;99.90;;;;;;5037618;28;20432;-77
2020/12/21 08:46:55;;;;;;;;;;;6.60;99.90;;;;;;5037924;28;19926;-77
2020/12/21 08:49:25;;;;;;;;;;;6.60;99.90;;;;;;5037573;28;20004;-78
2020/12/21 08:51:53;;;;;;;;;;;6.60;99.90;;;;;;5039152;28;19987;-78
2020/12/21 08:54:20;;;;;;;;;;;6.60;99.90;;;;;;5039989;28;19932;-78
2020/12/21 08:56:48;;;;;;;;;;;6.60;99.90;;;;;;5038701;28;19925;-78
2020/12/21 08:59:15;;;;;;;;;;;6.60;99.90;;;;;;5037906;28;20281;-78
2020/12/21 09:01:43;;;;;;;;;;;6.70;99.90;;;;;;5037343;28;19925;-78
2020/12/21 09:04:10;;;;;;;;;;;6.60;99.90;;;;;;5037430;28;19925;-77
2020/12/21 09:06:38;;;;;;;;;;;6.70;99.90;;;;;;5037443;28;19979;-78
2020/12/21 09:09:06;;;;;;;;;;;6.70;99.90;;;;;;5037572;28;20301;-78
2020/12/21 09:11:33;;;;;;;;;;;6.70;99.90;;;;;;5037701;28;19929;-78
2020/12/21 09:14:00;;;;;;;;;;;6.70;99.90;;;;;;5037384;28;19925;-78
2020/12/21 09:16:30;;;;;;;;;;;6.70;99.90;;;;;;5037364;28;19925;-78
2020/12/21 09:18:57;;;;;;;;;;;6.80;99.90;;;;;;5037206;28;20227;-77
2020/12/21 09:21:25;;;;;;;;;;;6.70;99.90;;;;;;5037379;28;19979;-77
2020/12/21 09:23:55;;;;;;;;;;;6.80;99.90;;;;;;5037111;28;19943;-77
2020/12/21 09:26:25;;;;;;;;;;;6.70;99.90;;;;;;5027502;28;19961;-77
2020/12/21 09:28:53;;;;;;;;;;;6.70;99.90;;;;;;5036931;28;19925;-78
2020/12/21 09:31:20;;;;;;;;;;;6.70;99.90;;;;;;5036617;28;19944;-78
2020/12/21 09:33:49;;;;;;;;;;;6.70;99.90;;;;;;5036770;28;19932;-78
2020/12/21 09:36:17;;;;;;;;;;;6.70;99.90;;;;;;5037041;28;20304;-77
2020/12/21 09:38:44;;;;;;;;;;;6.70;99.90;;;;;;5036673;28;19963;-77
2020/12/21 09:41:16;;;;;;;;;;;6.70;99.90;;;;;;5036413;28;19976;-77
2020/12/21 09:43:44;;;;;;;;;;;6.70;99.90;;;;;;5036513;28;20020;-77
2020/12/21 09:46:15;;;;;;;;;;;6.70;99.90;;;;;;5036243;28;20010;-77
2020/12/21 09:48:43;;;;;;;;;;;6.70;99.90;;;;;;5036846;28;19929;-77
2020/12/21 09:51:12;;;;;;;;;;;6.80;99.90;;;;;;5036057;28;20270;-77
2020/12/21 09:53:39;;;;;;;;;;;6.80;99.90;;;;;;5036355;28;20258;-77
2020/12/21 09:56:08;;;;;;;;;;;6.80;99.90;;;;;;5036526;28;19952;-78
2020/12/21 09:58:36;;;;;;;;;;;6.80;99.90;;;;;;5036513;28;19937;-77
2020/12/21 10:01:03;;;;;;;;;;;6.80;99.90;;;;;;5036081;28;19929;-78
2020/12/21 10:03:31;;;;;;;;;;;6.80;99.90;;;;;;5036667;28;19924;-78
2020/12/21 10:05:58;;;;;;;;;;;6.80;99.90;;;;;;5036502;28;19955;-77
2020/12/21 10:08:28;;;;;;;;;;;6.80;99.90;;;;;;5035840;28;19936;-77
2020/12/21 10:10:55;;;;;;;;;;;6.90;99.90;;;;;;5035809;28;20281;-78
2020/12/21 10:13:22;;;;;;;;;;;6.90;99.90;;;;;;5036112;28;19936;-78
2020/12/21 10:15:49;;;;;;;;;;;6.90;99.90;;;;;;5036089;28;19944;-78
2020/12/21 10:18:19;;;;;;;;;;;6.90;99.90;;;;;;5036257;28;19933;-78
2020/12/21 10:20:46;;;;;;;;;;;6.90;99.90;;;;;;5036066;28;19979;-78
2020/12/21 10:23:14;;;;;;;;;;;6.90;99.90;;;;;;5036489;28;19936;-78
2020/12/21 10:25:47;;;;;;;;;;;6.90;99.90;;;;;;5036529;28;19925;-78
2020/12/21 10:28:15;;;;;;;;;;;6.90;99.90;;;;;;5037521;28;19925;-78
2020/12/21 10:30:42;;;;;;;;;;;7.00;99.90;;;;;;5037744;28;20384;-78
2020/12/21 10:33:08;;;;;;;;;;;6.90;99.90;;;;;;5035099;28;20413;-78
2020/12/21 10:35:40;;;;;;;;;;;7.00;99.90;;;;;;5036885;28;19933;-78
2020/12/21 10:38:07;;;;;;;;;;;7.00;99.90;;;;;;5037810;28;19936;-78
2020/12/21 10:40:34;;;;;;;;;;;7.00;99.90;;;;;;5037798;28;19964;-78
2020/12/21 10:43:02;;;;;;;;;;;7.00;99.90;;;;;;5038631;28;19975;-79
2020/12/21 10:45:28;;;;;;;;;;;7.10;99.90;;;;;;5038734;28;19926;-78
2020/12/21 10:47:56;;;;;;;;;;;7.10;99.90;;;;;;5037026;28;20278;-78
2020/12/21 10:50:24;;;;;;;;;;;7.20;99.90;;;;;;5035554;28;19929;-78
2020/12/21 10:52:51;;;;;;;;;;;7.10;99.90;;;;;;5036398;28;19925;-78
2020/12/21 10:55:19;;;;;;;;;;;7.10;99.90;;;;;;5038246;28;20257;-78
2020/12/21 10:57:46;;;;;;;;;;;7.10;99.90;;;;;;5040774;28;19925;-79
2020/12/21 11:00:15;;;;;;;;;;;7.10;99.90;;;;;;5037920;28;20262;-79
2020/12/21 11:02:42;;;;;;;;;;;7.10;99.90;;;;;;5036550;28;19925;-79
2020/12/21 11:05:10;;;;;;;;;;;7.20;99.90;;;;;;5036432;28;20346;-79
2020/12/21 11:07:36;;;;;;;;;;;7.20;99.90;;;;;;5035827;28;19925;-79
2020/12/21 11:10:08;;;;;;;;;;;7.20;99.90;;;;;;5036738;28;19929;-79
2020/12/21 11:12:36;;;;;;;;;;;7.20;99.90;;;;;;5035538;28;19936;-79
2020/12/21 11:15:03;;;;;;;;;;;7.30;99.90;;;;;;5036020;28;20463;-79
2020/12/21 11:17:35;;;;;;;;;;;7.30;99.90;;;;;;5035320;28;19932;-79
2020/12/21 11:20:03;;;;;;;;;;;7.30;99.90;;;;;;5035536;28;20346;-80
2020/12/21 11:22:32;;;;;;;;;;;7.30;99.90;;;;;;5036000;28;19990;-80
2020/12/21 11:25:01;;;;;;;;;;;7.30;99.90;;;;;;5035509;28;19933;-80
2020/12/21 11:27:29;;;;;;;;;;;7.30;99.90;;;;;;5035355;28;19936;-79
2020/12/21 11:29:59;;;;;;;;;;;7.30;99.90;;;;;;5034615;28;19956;-79
2020/12/21 11:32:26;;;;;;;;;;;7.40;99.90;;;;;;5033740;28;19980;-79
2020/12/21 11:34:54;;;;;;;;;;;7.40;99.90;;;;;;5034517;28;19925;-79
2020/12/21 11:37:21;;;;;;;;;;;7.40;99.90;;;;;;5034559;28;19925;-78
2020/12/21 11:39:49;;;;;;;;;;;7.40;99.90;;;;;;5034711;28;19933;-78
2020/12/21 11:42:17;;;;;;;;;;;7.40;99.90;;;;;;5034718;28;19926;-78
2020/12/21 11:44:45;;;;;;;;;;;7.40;99.90;;;;;;5034560;28;19933;-78
2020/12/21 11:47:13;;;;;;;;;;;7.40;99.90;;;;;;5034409;28;19925;-79
2020/12/21 11:49:40;;;;;;;;;;;7.40;99.90;;;;;;5034382;28;19935;-78
2020/12/21 11:52:08;;;;;;;;;;;7.40;99.90;;;;;;5034659;28;20365;-77
2020/12/21 11:54:36;;;;;;;;;;;7.40;99.90;;;;;;5034599;28;19936;-79
2020/12/21 11:57:03;;;;;;;;;;;7.50;99.90;;;;;;5034558;28;19999;-77
2020/12/21 12:02:12;;;;;;;;;;;7.50;99.90;;;;;;5034672;28;20254;-77
2020/12/21 12:04:39;;;;;;;;;;;7.50;99.90;;;;;;5034465;28;19925;-78
2020/12/21 12:07:07;;;;;;;;;;;7.50;99.90;;;;;;5034383;28;19925;-78
2020/12/21 12:09:35;;;;;;;;;;;7.50;99.90;;;;;;5034404;28;19928;-78
2020/12/21 12:12:03;;;;;;;;;;;7.50;99.90;;;;;;5034249;28;20311;-78
2020/12/21 12:14:30;;;;;;;;;;;7.60;99.90;;;;;;5034637;28;20357;-78
2020/12/21 12:16:58;;;;;;;;;;;7.60;99.90;;;;;;5037805;28;20337;-78
2020/12/21 12:19:26;;;;;;;;;;;7.60;99.90;;;;;;5037546;28;19925;-78
2020/12/21 12:21:53;;;;;;;;;;;7.60;99.90;;;;;;5037833;28;19936;-78
2020/12/21 12:24:21;;;;;;;;;;;7.70;99.90;;;;;;5037703;28;19925;-78
2020/12/21 12:26:50;;;;;;;;;;;7.70;99.90;;;;;;5037532;28;20007;-77
2020/12/21 12:29:18;;;;;;;;;;;7.70;99.90;;;;;;5037451;28;19925;-78
2020/12/21 12:31:46;;;;;;;;;;;7.70;99.90;;;;;;5037590;28;19929;-77
2020/12/21 12:34:14;;;;;;;;;;;7.70;99.90;;;;;;5037492;28;19929;-77
2020/12/21 12:36:44;;;;;;;;;;;7.80;99.90;;;;;;5037549;28;19932;-78
2020/12/21 12:39:12;;;;;;;;;;;7.70;99.90;;;;;;5037230;28;19983;-78
2020/12/21 12:41:40;;;;;;;;;;;7.80;99.90;;;;;;5037271;28;20369;-78
2020/12/21 12:44:09;;;;;;;;;;;7.80;99.90;;;;;;5037219;28;19936;-78
2020/12/21 12:46:37;;;;;;;;;;;7.80;99.90;;;;;;5037202;28;19932;-78
2020/12/21 12:49:05;;;;;;;;;;;7.80;99.90;;;;;;5037305;28;19925;-78
2020/12/21 12:51:32;;;;;;;;;;;7.80;99.90;;;;;;5037039;28;19936;-77
2020/12/21 12:54:00;;;;;;;;;;;7.90;99.90;;;;;;5037109;28;20385;-78
2020/12/21 12:56:28;;;;;;;;;;;7.90;99.90;;;;;;5037420;28;19925;-77
2020/12/21 12:58:54;;;;;;;;;;;7.90;99.90;;;;;;5036955;28;19995;-81
2020/12/21 13:01:21;;;;;;;;;;;8.00;99.90;;;;;;5037023;28;19925;-77
2020/12/21 13:03:47;;;;;;;;;;;7.90;99.90;;;;;;5036975;28;19936;-76
2020/12/21 13:06:14;;;;;;;;;;;7.90;99.90;;;;;;5037159;28;20261;-77
2020/12/21 13:08:41;;;;;;;;;;;8.00;99.90;;;;;;5037003;28;19925;-77
2020/12/21 13:11:07;;;;;;;;;;;8.00;99.90;;;;;;5036932;28;19925;-86
2020/12/21 13:13:33;;;;;;;;;;;8.00;99.90;;;;;;5036834;28;19978;-87
2020/12/21 13:16:00;;;;;;;;;;;8.00;99.90;;;;;;5036920;28;19925;-88
2020/12/21 13:18:27;;;;;;;;;;;8.10;99.90;;;;;;5037026;28;19925;-92
2020/12/21 13:20:53;;;;;;;;;;;8.00;99.90;;;;;;5037180;28;20002;-89
2020/12/21 13:23:19;;;;;;;;;;;8.00;99.90;;;;;;5036620;28;20292;-88
2020/12/21 13:25:46;;;;;;;;;;;8.10;99.90;;;;;;5036576;28;19925;-86
2020/12/21 13:28:12;;;;;;;;;;;8.10;99.90;;;;;;5036646;28;20305;-89
2020/12/21 13:30:38;;;;;;;;;;;8.10;99.90;;;;;;5036563;28;20247;-90
2020/12/21 13:33:05;;;;;;;;;;;8.20;99.90;;;;;;5036630;28;19955;-89
2020/12/21 13:35:32;;;;;;;;;;;8.20;99.90;;;;;;5036704;28;19936;-90
2020/12/21 13:37:58;;;;;;;;;;;8.30;99.90;;;;;;5036333;28;19936;-91
2020/12/21 13:40:34;;;;;;;;;;;8.30;99.90;;;;;;5036409;28;19929;-90
2020/12/21 13:43:02;;;;;;;;;;;8.30;99.90;;;;;;5036548;28;19935;-89
2020/12/21 13:45:30;;;;;;;;;;;8.40;99.90;;;;;;5036491;28;19929;-89
2020/12/21 13:47:58;;;;;;;;;;;8.40;99.90;;;;;;5036522;28;19936;-88
2020/12/21 13:50:25;;;;;;;;;;;8.40;99.90;;;;;;5036051;28;19925;-90
2020/12/21 13:52:53;;;;;;;;;;;8.30;99.90;;;;;;5036314;28;19929;-89
2020/12/21 13:55:21;;;;;;;;;;;8.40;99.90;;;;;;5036355;28;19925;-89
2020/12/21 13:57:47;;;;;;;;;;;8.40;99.90;;;;;;5036147;28;19933;-90
2020/12/21 14:00:14;;;;;;;;;;;8.40;99.90;;;;;;5027761;28;20742;-90
2020/12/21 14:02:40;;;;;;;;;;;8.40;99.90;;;;;;5016024;28;19936;-90
2020/12/21 14:05:06;;;;;;;;;;;8.40;99.90;;;;;;5016128;28;19937;-89
2020/12/21 14:07:32;;;;;;;;;;;8.40;99.90;;;;;;5016287;28;19936;-90
2020/12/21 14:10:00;;;;;;;;;;;8.40;99.90;;;;;;5016340;28;19925;-89
2020/12/21 14:12:26;;;;;;;;;;;8.40;99.90;;;;;;5016177;28;19926;-90
2020/12/21 14:14:52;;;;;;;;;;;8.40;99.90;;;;;;5026501;28;19929;-90
2020/12/21 14:17:18;;;;;;;;;;;8.40;99.90;;;;;;5035909;28;20361;-92
2020/12/21 14:19:45;;;;;;;;;;;8.40;99.90;;;;;;5035808;28;19926;-89
2020/12/21 14:22:11;;;;;;;;;;;8.40;99.90;;;;;;5035902;28;20231;-90
2020/12/21 14:24:39;;;;;;;;;;;8.50;99.90;;;;;;5035550;28;19991;-90
2020/12/21 14:27:08;;;;;;;;;;;8.90;99.90;;;;;;5036073;28;19936;-90
2020/12/21 14:29:36;;;;;;;;;;;8.50;99.90;;;;;;5036130;28;19936;-91
2020/12/21 14:32:03;;;;;;;;;;;8.50;99.90;;;;;;5036387;28;19929;-90
2020/12/21 14:34:30;;;;;;;;;;;8.50;99.90;;;;;;5035951;28;19925;-91
2020/12/21 14:37:00;;;;;;;;;;;8.50;99.90;;;;;;5035397;28;19927;-91
2020/12/21 14:39:27;;;;;;;;;;;8.40;99.90;;;;;;5035771;28;19925;-91
2020/12/21 14:41:54;;;;;;;;;;;8.40;99.90;;;;;;5035882;28;19987;-91
2020/12/21 14:44:24;;;;;;;;;;;8.40;99.90;;;;;;5035818;28;19935;-91
2020/12/21 14:46:51;;;;;;;;;;;8.50;99.90;;;;;;5035691;28;19926;-92
2020/12/21 14:49:17;;;;;;;;;;;8.50;99.90;;;;;;5034114;28;20016;-90
2020/12/21 14:51:44;;;;;;;;;;;8.50;99.90;;;;;;5035771;28;19929;-90
2020/12/21 14:54:11;;;;;;;;;;;8.50;99.90;;;;;;5035154;28;19925;-90
2020/12/21 14:56:38;;;;;;;;;;;8.50;99.90;;;;;;5035734;28;19925;-91
2020/12/21 14:59:04;;;;;;;;;;;8.50;99.90;;;;;;5035125;28;19991;-91
2020/12/21 15:01:31;;;;;;;;;;;8.50;99.90;;;;;;5035436;28;19925;-91
2020/12/21 15:03:58;;;;;;;;;;;8.50;99.90;;;;;;5035571;28;20246;-91
2020/12/21 15:06:24;;;;;;;;;;;8.50;99.90;;;;;;5034518;28;19925;-90
2020/12/21 15:08:50;;;;;;;;;;;8.50;99.90;;;;;;5035384;28;19933;-90
2020/12/21 15:11:17;;;;;;;;;;;8.50;99.90;;;;;;5035381;28;19952;-90
2020/12/21 15:13:43;;;;;;;;;;;8.50;99.90;;;;;;5035433;28;19940;-90
2020/12/21 15:16:10;;;;;;;;;;;8.50;99.90;;;;;;5035331;28;19925;-91
2020/12/21 15:18:37;;;;;;;;;;;8.50;99.90;;;;;;5035121;28;20341;-89
2020/12/21 15:21:04;;;;;;;;;;;8.50;99.90;;;;;;5035167;28;19936;-91
2020/12/21 15:23:30;;;;;;;;;;;8.50;99.90;;;;;;5034962;28;19925;-91
2020/12/21 15:25:57;;;;;;;;;;;8.50;99.90;;;;;;5035046;28;19925;-90
2020/12/21 15:28:23;;;;;;;;;;;8.50;99.90;;;;;;5035116;28;19940;-89
2020/12/21 15:30:49;;;;;;;;;;;8.50;99.90;;;;;;5034873;28;19929;-90
2020/12/21 15:33:16;;;;;;;;;;;8.60;99.90;;;;;;5034984;28;19925;-90
2020/12/21 15:35:43;;;;;;;;;;;8.60;99.90;;;;;;5035096;28;19925;-89
2020/12/21 15:38:09;;;;;;;;;;;8.60;99.90;;;;;;5035002;28;19925;-89
2020/12/21 15:40:35;;;;;;;;;;;8.50;99.90;;;;;;5034907;28;20231;-89
2020/12/21 15:43:02;;;;;;;;;;;8.60;99.90;;;;;;5034707;28;19932;-90
2020/12/21 15:45:28;;;;;;;;;;;8.60;99.90;;;;;;5034785;28;19925;-89
2020/12/21 15:47:58;;;;;;;;;;;8.60;99.90;;;;;;5034835;28;19925;-90
2020/12/21 15:50:24;;;;;;;;;;;8.60;99.90;;;;;;5042166;28;20365;-92
2020/12/21 15:52:51;;;;;;;;;;;8.60;99.90;;;;;;5039772;28;19926;-90
2020/12/21 15:55:18;;;;;;;;;;;8.50;99.90;;;;;;5038563;28;19925;-89
2020/12/21 15:57:45;;;;;;;;;;;8.60;99.90;;;;;;5038322;28;20281;-89
2020/12/21 16:00:13;;;;;;;;;;;8.60;99.90;;;;;;5034026;28;19936;-88
2020/12/21 16:02:41;;;;;;;;;;;8.60;99.90;;;;;;5037853;28;19925;-88
2020/12/21 16:05:10;;;;;;;;;;;8.60;99.90;;;;;;5038155;28;20360;-87
2020/12/21 16:07:37;;;;;;;;;;;8.60;99.90;;;;;;5038145;28;20020;-88
2020/12/21 16:10:11;;;;;;;;;;;8.60;99.90;;;;;;5038367;28;20250;-88
2020/12/21 16:12:40;;;;;;;;;;;8.60;99.90;;;;;;5037988;28;19960;-89
2020/12/21 16:15:07;;;;;;;;;;;8.70;99.90;;;;;;5037992;28;20016;-88
2020/12/21 16:17:34;;;;;;;;;;;8.70;99.90;;;;;;5038013;28;20023;-88
2020/12/21 16:20:00;;;;;;;;;;;8.70;99.90;;;;;;5038035;28;19933;-88
2020/12/21 16:22:27;;;;;;;;;;;8.70;99.90;;;;;;5049480;28;19955;-89
2020/12/21 16:24:53;;;;;;;;;;;8.70;99.90;;;;;;5057692;28;19929;-88
2020/12/21 16:27:20;;;;;;;;;;;8.70;99.90;;;;;;5057721;28;20248;-89
2020/12/21 16:29:47;;;;;;;;;;;8.70;99.90;;;;;;5052540;28;20012;-88
2020/12/21 16:32:13;;;;;;;;;;;8.70;99.90;;;;;;5037746;28;19929;-88
2020/12/21 16:34:39;;;;;;;;;;;8.80;99.90;;;;;;5037856;28;19925;-88
2020/12/21 16:37:06;;;;;;;;;;;8.80;99.90;;;;;;5037645;28;19968;-89
2020/12/21 16:39:32;;;;;;;;;;;8.80;99.90;;;;;;5037455;28;20254;-89
2020/12/21 16:41:59;;;;;;;;;;;8.80;99.90;;;;;;5036875;28;19925;-89
2020/12/21 16:44:26;;;;;;;;;;;8.80;99.90;;;;;;5036902;28;19932;-88
2020/12/21 16:46:53;;;;;;;;;;;8.80;99.90;;;;;;5036767;28;19925;-88
2020/12/21 16:49:19;;;;;;;;;;;8.80;99.90;;;;;;5036528;28;20020;-88
2020/12/21 16:51:45;;;;;;;;;;;8.80;99.90;;;;;;5036577;28;19925;-89
2020/12/21 16:54:12;;;;;;;;;;;8.80;99.90;;;;;;5036497;28;19925;-89
2020/12/21 16:56:38;;;;;;;;;;;8.80;99.90;;;;;;5036605;28;19925;-89
2020/12/21 16:59:04;;;;;;;;;;;8.80;99.90;;;;;;5037204;28;19936;-88
2020/12/21 17:01:31;;;;;;;;;;;8.80;99.90;;;;;;5036166;28;19936;-87
2020/12/21 17:03:58;;;;;;;;;;;8.80;99.90;;;;;;5037209;28;19925;-87
2020/12/21 17:06:24;;;;;;;;;;;8.80;99.90;;;;;;5037163;28;19924;-88
2020/12/21 17:08:50;;;;;;;;;;;8.80;99.90;;;;;;5037216;28;19925;-88
2020/12/21 17:11:17;;;;;;;;;;;8.80;99.90;;;;;;5036841;28;19925;-88
2020/12/21 17:13:43;;;;;;;;;;;8.90;99.90;;;;;;5036855;28;19929;-89
2020/12/21 17:16:10;;;;;;;;;;;8.90;99.90;;;;;;5036963;28;19948;-89
2020/12/21 17:18:37;;;;;;;;;;;8.90;99.90;;;;;;5036637;28;19925;-89
2020/12/21 17:21:04;;;;;;;;;;;8.90;99.90;;;;;;5036812;28;20275;-88
2020/12/21 17:23:30;;;;;;;;;;;8.90;99.90;;;;;;5036880;28;20309;-88
2020/12/21 17:25:57;;;;;;;;;;;8.90;99.90;;;;;;5036578;28;19987;-89
2020/12/21 17:28:23;;;;;;;;;;;9.00;99.90;;;;;;5036542;28;19940;-89
2020/12/21 17:30:49;;;;;;;;;;;9.00;99.90;;;;;;5036476;28;19952;-88
2020/12/21 17:33:15;;;;;;;;;;;9.00;99.90;;;;;;5036693;28;19925;-89
2020/12/21 17:35:43;;;;;;;;;;;8.90;99.90;;;;;;5036510;28;19925;-88
2020/12/21 17:38:09;;;;;;;;;;;9.00;99.90;;;;;;5036290;28;19925;-89
2020/12/21 17:40:38;;;;;;;;;;;9.00;99.90;;;;;;5036172;28;19925;-88
2020/12/21 17:43:05;;;;;;;;;;;9.00;99.90;;;;;;5036391;28;19932;-88
2020/12/21 17:45:33;;;;;;;;;;;9.00;99.90;;;;;;5036528;28;19933;-89
2020/12/21 17:48:00;;;;;;;;;;;9.00;99.90;;;;;;5036346;28;20353;-88
2020/12/21 17:50:28;;;;;;;;;;;9.00;99.90;;;;;;5035989;28;19936;-88
2020/12/21 17:52:58;;;;;;;;;;;9.00;99.90;;;;;;5036400;28;20393;-88
2020/12/21 17:55:28;;;;;;;;;;;9.00;99.90;;;;;;5036150;28;20335;-88
2020/12/21 17:57:55;;;;;;;;;;;9.00;99.90;;;;;;5036194;28;20029;-89
2020/12/21 18:00:21;;;;;;;;;;;9.00;99.90;;;;;;5034954;28;19925;-88
2020/12/21 18:02:47;;;;;;;;;;;9.10;99.90;;;;;;5035712;28;19925;-88
2020/12/21 18:05:14;;;;;;;;;;;9.10;99.90;;;;;;5035429;28;19929;-88
2020/12/21 18:07:40;;;;;;;;;;;9.10;99.90;;;;;;5035620;28;19925;-89
2020/12/21 18:10:07;;;;;;;;;;;9.20;99.90;;;;;;5035706;28;19933;-88
2020/12/21 18:12:34;;;;;;;;;;;9.20;99.90;;;;;;5035222;28;19929;-88
2020/12/21 18:15:01;;;;;;;;;;;9.10;99.90;;;;;;5035772;28;19929;-88
2020/12/21 18:17:30;;;;;;;;;;;9.20;99.90;;;;;;5035621;28;19991;-89
2020/12/21 18:19:58;;;;;;;;;;;9.20;99.90;;;;;;5035615;28;19925;-88
2020/12/21 18:22:31;;;;;;;;;;;9.10;99.90;;;;;;5035511;28;19925;-88
2020/12/21 18:25:01;;;;;;;;;;;9.10;99.90;;;;;;5035230;28;19975;-88
2020/12/21 18:27:40;;;;;;;;;;;9.10;99.90;;;;;;5035099;28;19948;-88
2020/12/21 18:30:06;;;;;;;;;;;9.20;99.90;;;;;;5033033;28;19932;-88
2020/12/21 18:32:36;;;;;;;;;;;9.20;99.90;;;;;;5034904;28;20371;-88
2020/12/21 18:35:03;;;;;;;;;;;9.20;99.90;;;;;;5032962;28;19936;-89
2020/12/21 18:37:31;;;;;;;;;;;9.20;99.90;;;;;;5035547;28;20000;-88
2020/12/21 18:39:58;;;;;;;;;;;9.20;99.90;;;;;;5035644;28;19925;-87
2020/12/21 18:42:26;;;;;;;;;;;9.20;99.90;;;;;;5035134;28;19996;-88
2020/12/21 18:44:54;;;;;;;;;;;9.20;99.90;;;;;;5035176;28;19925;-88
2020/12/21 18:47:24;;;;;;;;;;;9.20;99.90;;;;;;5035081;28;19925;-88
2020/12/21 18:49:53;;;;;;;;;;;9.30;99.90;;;;;;5034820;28;19926;-78
2020/12/21 18:52:21;;;;;;;;;;;9.30;99.90;;;;;;5034865;28;19935;-80
2020/12/21 18:54:49;;;;;;;;;;;9.30;99.90;;;;;;5034271;28;19925;-77
2020/12/21 18:57:17;;;;;;;;;;;9.30;99.90;;;;;;5034850;28;19925;-77
2020/12/21 18:59:45;;;;;;;;;;;9.30;99.90;;;;;;5034042;28;19929;-77
2020/12/21 19:02:15;;;;;;;;;;;9.20;99.90;;;;;;5034568;28;19925;-78
2020/12/21 19:04:42;;;;;;;;;;;9.30;99.90;;;;;;5034715;28;20265;-78
2020/12/21 19:07:09;;;;;;;;;;;9.30;99.90;;;;;;5034979;28;20297;-79
2020/12/21 19:09:36;;;;;;;;;;;9.30;99.90;;;;;;5035071;28;19925;-77
2020/12/21 19:12:04;;;;;;;;;;;9.30;99.90;;;;;;5034880;28;19925;-78
2020/12/21 19:14:31;;;;;;;;;;;9.30;99.90;;;;;;5034852;28;20305;-78
2020/12/21 19:16:57;;;;;;;;;;;9.30;99.90;;;;;;5034826;28;19936;-78
2020/12/21 19:19:26;;;;;;;;;;;9.30;99.90;;;;;;5034804;28;20316;-77
2020/12/21 19:21:52;;;;;;;;;;;9.40;99.90;;;;;;5034743;28;20354;-77
2020/12/21 19:24:18;;;;;;;;;;;9.40;99.90;;;;;;5036854;28;19925;-78
2020/12/21 19:26:50;;;;;;;;;;;9.40;99.90;;;;;;5038751;28;20424;-78
2020/12/21 19:29:16;;;;;;;;;;;9.40;99.90;;;;;;5038278;28;20342;-78
2020/12/21 19:31:42;;;;;;;;;;;9.40;99.90;;;;;;5037972;28;19948;-78
2020/12/21 19:34:08;;;;;;;;;;;9.40;99.90;;;;;;5038782;28;19925;-78
2020/12/21 19:36:37;;;;;;;;;;;9.40;99.90;;;;;;5038489;28;20281;-78
2020/12/21 19:39:03;;;;;;;;;;;9.40;99.90;;;;;;5038525;28;20342;-79
2020/12/21 19:41:29;;;;;;;;;;;9.40;99.90;;;;;;5037452;28;19932;-81
2020/12/21 19:44:00;;;;;;;;;;;9.40;99.90;;;;;;5037713;28;19936;-79
2020/12/21 19:46:27;;;;;;;;;;;9.30;99.90;;;;;;5037466;28;19925;-79
2020/12/21 19:48:55;;;;;;;;;;;9.40;99.90;;;;;;5038373;28;19929;-81
2020/12/21 19:51:22;;;;;;;;;;;9.40;99.90;;;;;;5038300;28;19936;-79
2020/12/21 19:53:50;;;;;;;;;;;9.40;99.90;;;;;;5038525;28;19925;-81
2020/12/21 19:56:17;;;;;;;;;;;9.40;99.90;;;;;;5038373;28;19936;-80
2020/12/21 19:58:45;;;;;;;;;;;9.40;99.90;;;;;;5038335;28;19932;-80
2020/12/21 20:01:13;;;;;;;;;;;9.40;99.90;;;;;;5038224;28;19969;-80
2020/12/21 20:03:39;;;;;;;;;;;9.40;99.90;;;;;;5037906;28;19925;-77
2020/12/21 20:06:05;;;;;;;;;;;9.40;99.90;;;;;;5037416;28;20395;-78
2020/12/21 20:08:32;;;;;;;;;;;9.40;99.90;;;;;;5037095;28;19933;-78
2020/12/21 20:10:59;;;;;;;;;;;9.40;99.90;;;;;;5036986;28;19999;-78
2020/12/21 20:13:27;;;;;;;;;;;9.40;99.90;;;;;;5037836;28;19933;-79
2020/12/21 20:15:54;;;;;;;;;;;9.40;99.90;;;;;;5037871;28;20365;-81
2020/12/21 20:18:22;;;;;;;;;;;9.40;99.90;;;;;;5037829;28;20362;-84
2020/12/21 20:20:50;;;;;;;;;;;9.40;99.90;;;;;;5037726;28;19925;-83
2020/12/21 20:23:17;;;;;;;;;;;9.40;99.90;;;;;;5037615;28;20373;-83
2020/12/21 20:25:46;;;;;;;;;;;9.40;99.90;;;;;;5037517;28;19971;-81
2020/12/21 20:28:15;;;;;;;;;;;9.40;99.90;;;;;;5037821;28;19932;-84
2020/12/21 20:30:41;;;;;;;;;;;9.40;99.90;;;;;;5037681;28;19932;-80
2020/12/21 20:33:07;;;;;;;;;;;9.40;99.90;;;;;;5036922;28;19925;-83
2020/12/21 20:35:34;;;;;;;;;;;9.40;99.90;;;;;;5036067;28;19993;-84
2020/12/21 20:38:00;;;;;;;;;;;9.40;99.90;;;;;;5037542;28;19925;-84
2020/12/21 20:40:26;;;;;;;;;;;9.40;99.90;;;;;;5037283;28;19932;-82
2020/12/21 20:42:55;;;;;;;;;;;9.40;99.90;;;;;;5037729;28;19936;-79
2020/12/21 20:45:23;;;;;;;;;;;9.30;99.90;;;;;;5037489;28;20003;-79
2020/12/21 20:47:50;;;;;;;;;;;9.40;99.90;;;;;;5037528;28;19936;-80
2020/12/21 20:50:17;;;;;;;;;;;9.30;99.90;;;;;;5037064;28;19925;-79
2020/12/21 20:52:47;;;;;;;;;;;9.40;99.90;;;;;;5036710;28;19928;-79
2020/12/21 20:55:21;;;;;;;;;;;9.30;99.90;;;;;;5037218;28;19925;-79
2020/12/21 20:57:50;;;;;;;;;;;9.30;99.90;;;;;;5037370;28;19925;-79
2020/12/21 21:00:18;;;;;;;;;;;9.30;99.90;;;;;;5036969;28;19932;-80
2020/12/21 21:02:46;;;;;;;;;;;9.30;99.90;;;;;;5037088;28;19995;-80
2020/12/21 21:05:14;;;;;;;;;;;9.30;99.90;;;;;;5037416;28;19925;-81
2020/12/21 21:07:42;;;;;;;;;;;9.30;99.90;;;;;;5036904;28;20412;-79
2020/12/21 21:10:09;;;;;;;;;;;9.20;99.90;;;;;;5037037;28;19964;-78
2020/12/21 21:12:35;;;;;;;;;;;9.20;99.90;;;;;;5036734;28;19925;-78
2020/12/21 21:15:02;;;;;;;;;;;9.20;99.90;;;;;;5036820;28;19925;-80
2020/12/21 21:17:28;;;;;;;;;;;9.20;99.90;;;;;;5036596;28;19925;-78
2020/12/21 21:19:55;;;;;;;;;;;9.20;99.90;;;;;;5035980;28;19925;-79
2020/12/21 21:22:21;;;;;;;;;;;9.20;99.90;;;;;;5036937;28;19925;-78
2020/12/21 21:24:49;;;;;;;;;;;9.20;99.90;;;;;;5036526;28;19925;-78
2020/12/21 21:27:16;;;;;;;;;;;9.20;99.90;;;;;;5036936;28;19925;-77
2020/12/21 21:29:42;;;;;;;;;;;9.20;99.90;;;;;;5036496;28;20350;-78
2020/12/21 21:32:08;;;;;;;;;;;9.10;99.90;;;;;;5035980;28;19926;-79
2020/12/21 21:34:35;;;;;;;;;;;9.10;99.90;;;;;;5036785;28;19926;-78
2020/12/21 21:37:02;;;;;;;;;;;9.10;99.90;;;;;;5036280;28;20235;-78
2020/12/21 21:39:28;;;;;;;;;;;9.10;99.90;;;;;;5036428;28;19925;-77
2020/12/21 21:41:54;;;;;;;;;;;9.10;99.90;;;;;;5036326;28;19933;-77
2020/12/21 21:44:21;;;;;;;;;;;9.10;99.90;;;;;;5036210;28;19925;-77
2020/12/21 21:46:51;;;;;;;;;;;9.10;99.90;;;;;;5036196;28;19965;-78
2020/12/21 21:49:17;;;;;;;;;;;9.10;99.90;;;;;;5035837;28;20273;-78
2020/12/21 21:51:44;;;;;;;;;;;9.10;99.90;;;;;;5036468;28;19939;-78
2020/12/21 21:54:11;;;;;;;;;;;9.10;99.90;;;;;;5036332;28;19935;-78
2020/12/21 21:56:37;;;;;;;;;;;9.00;99.90;;;;;;5036380;28;19932;-76
2020/12/21 21:59:03;;;;;;;;;;;9.00;99.90;;;;;;5035945;28;20377;-79
2020/12/21 22:01:36;;;;;;;;;;;9.00;99.90;;;;;;5035550;28;19925;-77
2020/12/21 22:04:02;;;;;;;;;;;9.00;99.90;;;;;;5035927;28;19928;-77
2020/12/21 22:06:28;;;;;;;;;;;9.10;99.90;;;;;;5036055;28;19925;-80
2020/12/21 22:08:54;;;;;;;;;;;9.00;99.90;;;;;;5036245;28;19925;-79
2020/12/21 22:11:22;;;;;;;;;;;9.00;99.90;;;;;;5035732;28;19937;-78
2020/12/21 22:13:48;;;;;;;;;;;9.00;99.90;;;;;;5035645;28;20400;-86
2020/12/21 22:16:14;;;;;;;;;;;9.00;99.90;;;;;;5035681;28;19940;-78
2020/12/21 22:18:40;;;;;;;;;;;9.00;99.90;;;;;;5035458;28;19924;-80
2020/12/21 22:21:07;;;;;;;;;;;9.00;99.90;;;;;;5035569;28;19987;-78
2020/12/21 22:23:33;;;;;;;;;;;9.00;99.90;;;;;;5035620;28;19991;-78
2020/12/21 22:26:00;;;;;;;;;;;8.90;99.90;;;;;;5035447;28;19936;-80